createdAt,value
2022-09-20T00:01:32.409Z,2.60
2022-09-20T00:04:08.147Z,2.20
2022-09-20T00:06:43.326Z,2.07
2022-09-20T00:09:18.280Z,2.23
2022-09-20T00:11:53.406Z,2.20
2022-09-20T00:14:28.319Z,1.87
2022-09-20T00:17:03.360Z,1.93
2022-09-20T00:19:38.283Z,2.10
2022-09-20T00:22:13.240Z,1.73
2022-09-20T00:24:49.154Z,1.77
2022-09-20T00:27:24.255Z,1.70
2022-09-20T00:29:59.174Z,2.00
2022-09-20T00:32:34.109Z,2.40
2022-09-20T00:35:10.885Z,2.30
2022-09-20T00:37:45.769Z,1.80
2022-09-20T00:40:22.800Z,2.20
2022-09-20T00:42:57.828Z,1.90
2022-09-20T00:45:33.497Z,2.10
2022-09-20T00:48:19.609Z,1.53
2022-09-20T00:51:09.938Z,1.60
2022-09-20T00:53:49.413Z,1.80
2022-09-20T00:56:35.788Z,2.17
2022-09-20T00:59:26.667Z,1.70
2022-09-20T01:02:17.575Z,1.73
2022-09-20T01:04:52.728Z,1.80
2022-09-20T01:07:28.434Z,1.70
2022-09-20T01:10:03.626Z,1.80
2022-09-20T01:12:40.662Z,1.93
2022-09-20T01:15:15.953Z,2.20
2022-09-20T01:17:54.878Z,2.00
2022-09-20T01:20:34.368Z,1.90
2022-09-20T01:23:50.449Z,2.30
2022-09-20T01:26:58.171Z,2.10
2022-09-20T01:30:04.482Z,2.57
2022-09-20T01:33:06.532Z,2.00
2022-09-20T01:35:44.693Z,1.87
2022-09-20T01:38:48.988Z,1.80
2022-09-20T01:41:42.186Z,1.70
2022-09-20T01:44:52.461Z,1.70
2022-09-20T01:47:45.331Z,1.73
2022-09-20T01:50:46.558Z,1.70
2022-09-20T01:53:54.343Z,1.90
2022-09-20T01:57:04.833Z,1.80
2022-09-20T02:00:06.132Z,1.63
2022-09-20T02:03:14.756Z,2.20
2022-09-20T02:06:35.183Z,1.63
2022-09-20T02:09:30.667Z,1.43
2022-09-20T02:12:32.818Z,1.90
2022-09-20T02:15:45.320Z,1.40
2022-09-20T02:18:26.029Z,1.57
2022-09-20T02:21:37.492Z,1.60
2022-09-20T02:24:27.210Z,1.40
2022-09-20T02:27:23.284Z,1.63
2022-09-20T02:30:07.721Z,1.50
2022-09-20T02:33:31.372Z,1.50
2022-09-20T02:36:23.532Z,1.40
2022-09-20T02:39:17.698Z,1.30
2022-09-20T02:42:44.769Z,1.50
2022-09-20T02:45:40.521Z,1.60
2022-09-20T02:48:23.911Z,1.40
2022-09-20T02:51:12.721Z,1.60
2022-09-20T02:54:39.474Z,1.60
2022-09-20T02:57:59.517Z,1.67
2022-09-20T03:00:54.551Z,1.70
2022-09-20T03:04:05.420Z,1.30
2022-09-20T03:07:03.289Z,1.20
2022-09-20T03:10:11.447Z,1.40
2022-09-20T03:13:12.023Z,1.57
2022-09-20T03:16:09.448Z,1.50
2022-09-20T03:18:54.077Z,1.50
2022-09-20T03:22:12.864Z,1.50
2022-09-20T03:25:19.510Z,1.20
2022-09-20T03:28:20.032Z,2.10
2022-09-20T03:31:44.080Z,1.40
2022-09-20T03:34:42.997Z,1.60
2022-09-20T03:38:03.615Z,1.60
2022-09-20T03:40:53.077Z,1.60
2022-09-20T03:43:49.737Z,1.33
2022-09-20T03:46:28.590Z,1.13
2022-09-20T03:49:51.385Z,1.23
2022-09-20T03:52:45.886Z,1.60
2022-09-20T03:55:26.603Z,1.70
2022-09-20T03:58:51.911Z,1.50
2022-09-20T04:02:01.804Z,1.53
2022-09-20T04:04:53.841Z,1.70
2022-09-20T04:08:12.534Z,2.87
2022-09-20T04:11:11.509Z,1.70
2022-09-20T04:14:11.758Z,2.10
2022-09-20T04:17:24.573Z,1.40
2022-09-20T04:20:15.215Z,1.37
2022-09-20T04:22:53.336Z,1.30
2022-09-20T04:25:41.750Z,1.70
2022-09-20T04:28:44.069Z,1.53
2022-09-20T04:31:43.718Z,2.03
2022-09-20T04:34:48.865Z,1.70
2022-09-20T04:37:33.025Z,1.80
2022-09-20T04:40:44.460Z,1.60
2022-09-20T04:44:13.508Z,1.83
2022-09-20T04:47:39.159Z,1.47
2022-09-20T04:50:51.537Z,1.60
2022-09-20T04:53:47.145Z,1.70
2022-09-20T04:56:40.209Z,1.70
2022-09-20T04:59:59.034Z,1.87
2022-09-20T05:02:42.666Z,1.70
2022-09-20T05:05:36.504Z,1.70
2022-09-20T05:08:49.381Z,1.93
2022-09-20T05:12:10.956Z,1.90
2022-09-20T05:15:49.684Z,2.20
2022-09-20T05:19:04.255Z,2.30
2022-09-20T05:21:57.015Z,2.30
2022-09-20T05:24:47.210Z,1.80
2022-09-20T05:27:55.758Z,2.20
2022-09-20T05:30:58.296Z,2.07
2022-09-20T05:33:53.272Z,2.23
2022-09-20T05:36:41.385Z,2.00
2022-09-20T05:39:22.506Z,1.90
2022-09-20T05:42:12.548Z,2.67
2022-09-20T05:44:50.055Z,1.97
2022-09-20T05:47:56.526Z,2.23
2022-09-20T05:51:03.808Z,2.43
2022-09-20T05:54:48.190Z,2.13
2022-09-20T05:57:42.659Z,2.43
2022-09-20T06:00:21.509Z,2.10
2022-09-20T06:03:05.110Z,2.20
2022-09-20T06:06:17.178Z,1.83
2022-09-20T06:09:22.619Z,2.13
2022-09-20T06:12:19.741Z,2.30
2022-09-20T06:15:12.205Z,2.50
2022-09-20T06:18:08.689Z,2.70
2022-09-20T06:21:14.140Z,3.33
2022-09-20T06:23:49.569Z,3.10
2022-09-20T06:26:31.935Z,2.80
2022-09-20T06:29:13.154Z,3.33
2022-09-20T06:31:48.993Z,3.17
2022-09-20T06:34:24.531Z,2.70
2022-09-20T06:37:44.272Z,2.57
2022-09-20T06:41:20.387Z,2.83
2022-09-20T06:44:00.300Z,2.67
2022-09-20T06:46:36.363Z,2.20
2022-09-20T06:49:11.167Z,2.13
2022-09-20T06:51:46.504Z,1.90
2022-09-20T06:54:23.037Z,2.43
2022-09-20T06:56:58.293Z,2.00
2022-09-20T06:59:33.140Z,2.50
2022-09-20T07:02:08.311Z,2.10
2022-09-20T07:04:44.532Z,1.93
2022-09-20T07:07:19.409Z,2.17
2022-09-20T07:09:54.333Z,2.50
2022-09-20T07:12:31.129Z,3.20
2022-09-20T07:15:07.239Z,2.90
2022-09-20T07:17:45.431Z,2.50
2022-09-20T07:20:21.475Z,2.27
2022-09-20T07:22:56.485Z,2.90
2022-09-20T07:25:32.077Z,2.20
2022-09-20T07:28:07.421Z,2.40
2022-09-20T07:30:42.867Z,2.07
2022-09-20T07:33:21.434Z,2.10
2022-09-20T07:35:56.378Z,2.43
2022-09-20T07:38:31.193Z,2.40
2022-09-20T07:41:06.477Z,2.30
2022-09-20T07:43:41.372Z,2.30
2022-09-20T07:46:16.276Z,2.47
2022-09-20T07:48:51.347Z,2.50
2022-09-20T07:51:26.273Z,2.17
2022-09-20T07:54:01.161Z,1.73
2022-09-20T07:56:36.597Z,2.03
2022-09-20T07:59:12.253Z,2.00
2022-09-20T08:01:47.416Z,2.40
2022-09-20T08:04:22.259Z,1.97
2022-09-20T08:06:58.486Z,2.10
2022-09-20T08:09:33.377Z,1.83
2022-09-20T08:15:05.661Z,1.90
2022-09-20T08:17:46.993Z,1.97
2022-09-20T08:20:21.848Z,2.20
2022-09-20T08:23:22.162Z,1.80
2022-09-20T08:25:57.278Z,1.70
2022-09-20T08:28:33.718Z,1.50
2022-09-20T08:31:15.827Z,1.70
2022-09-20T08:33:52.681Z,3.20
2022-09-20T08:36:31.051Z,1.73
2022-09-20T08:42:39.100Z,1.70
2022-09-20T08:45:34.480Z,1.60
2022-09-20T08:48:16.222Z,1.50
2022-09-20T08:50:51.154Z,1.63
2022-09-20T08:53:28.990Z,1.40
2022-09-20T08:56:06.513Z,1.10
2022-09-20T08:58:41.518Z,1.30
2022-09-20T09:01:25.072Z,1.23
2022-09-20T09:04:23.416Z,1.10
2022-09-20T09:06:58.286Z,1.00
2022-09-20T09:09:37.593Z,1.20
2022-09-20T09:12:25.532Z,1.00
2022-09-20T09:15:21.355Z,0.87
2022-09-20T09:17:56.379Z,1.10
2022-09-20T09:20:43.268Z,1.30
2022-09-20T09:23:27.301Z,1.13
2022-09-20T09:26:05.501Z,1.20
2022-09-20T09:28:40.340Z,1.10
2022-09-20T09:31:26.149Z,1.43
2022-09-20T09:34:01.137Z,1.20
2022-09-20T09:36:44.303Z,1.20
2022-09-20T09:39:31.048Z,1.00
2022-09-20T09:42:26.187Z,1.00
2022-09-20T09:45:28.117Z,1.00
2022-09-20T09:48:22.440Z,1.10
2022-09-20T09:51:19.409Z,1.10
2022-09-20T09:53:55.156Z,0.83
2022-09-20T09:56:57.240Z,1.00
2022-09-20T10:00:22.208Z,1.10
2022-09-20T10:03:09.341Z,1.20
2022-09-20T10:06:02.491Z,1.17
2022-09-20T10:09:24.044Z,1.00
2022-09-20T10:12:25.548Z,1.97
2022-09-20T10:15:14.279Z,0.73
2022-09-20T10:18:45.013Z,0.90
2022-09-20T10:21:38.949Z,0.80
2022-09-20T10:24:51.509Z,1.03
2022-09-20T10:27:50.286Z,0.90
2022-09-20T10:30:42.918Z,1.00
2022-09-20T10:33:45.173Z,1.17
2022-09-20T10:36:38.544Z,1.00
2022-09-20T10:39:38.771Z,1.10
2022-09-20T10:43:06.332Z,0.90
2022-09-20T10:46:32.329Z,1.03
2022-09-20T10:49:25.871Z,0.70
2022-09-20T10:52:15.516Z,0.97
2022-09-20T10:55:21.133Z,0.97
2022-09-20T10:58:30.962Z,1.00
2022-09-20T11:01:41.319Z,1.00
2022-09-20T11:04:56.993Z,1.00
2022-09-20T11:07:37.366Z,1.00
2022-09-20T11:10:45.009Z,1.10
2022-09-20T11:13:45.594Z,1.00
2022-09-20T11:16:41.829Z,0.90
2022-09-20T11:19:50.809Z,1.20
2022-09-20T11:22:43.489Z,1.00
2022-09-20T11:25:37.105Z,0.97
2022-09-20T11:28:22.949Z,0.90
2022-09-20T11:31:14.000Z,1.43
2022-09-20T11:34:00.114Z,0.80
2022-09-20T11:36:44.922Z,0.70
2022-09-20T11:39:29.249Z,0.80
2022-09-20T11:42:05.461Z,1.00
2022-09-20T11:44:42.256Z,0.90
2022-09-20T11:47:53.221Z,1.10
2022-09-20T11:50:41.311Z,1.00
2022-09-20T11:53:46.680Z,0.90
2022-09-20T11:56:25.817Z,0.87
2022-09-20T11:59:12.029Z,0.90
2022-09-20T12:01:46.964Z,0.80
2022-09-20T12:04:34.556Z,0.80
2022-09-20T12:07:42.001Z,0.57
2022-09-20T12:10:27.180Z,0.70
2022-09-20T12:13:06.477Z,0.70
2022-09-20T12:15:42.203Z,0.80
2022-09-20T12:18:34.153Z,1.00
2022-09-20T12:21:16.389Z,0.77
2022-09-20T12:23:57.381Z,0.90
2022-09-20T12:26:40.472Z,0.87
2022-09-20T12:29:24.176Z,0.87
2022-09-20T12:32:47.009Z,1.13
2022-09-20T12:35:37.146Z,0.90
2022-09-20T12:38:31.091Z,1.20
2022-09-20T12:41:11.802Z,1.10
2022-09-20T12:44:05.218Z,1.00
2022-09-20T12:46:54.492Z,0.90
2022-09-20T12:49:54.890Z,0.80
2022-09-20T12:52:50.604Z,0.70
2022-09-20T12:56:04.895Z,0.80
2022-09-20T12:58:55.783Z,0.80
2022-09-20T13:01:35.969Z,0.80
2022-09-20T13:04:49.845Z,0.80
2022-09-20T13:07:53.905Z,0.87
2022-09-20T13:10:37.521Z,0.73
2022-09-20T13:13:33.262Z,0.90
2022-09-20T13:16:22.621Z,1.00
2022-09-20T13:19:17.963Z,0.90
2022-09-20T13:22:04.392Z,1.20
2022-09-20T13:24:49.236Z,1.10
2022-09-20T13:27:29.400Z,1.40
2022-09-20T13:30:25.640Z,1.07
2022-09-20T13:33:24.058Z,1.00
2022-09-20T13:35:58.908Z,0.90
2022-09-20T13:38:34.796Z,0.80
2022-09-20T13:41:10.857Z,1.10
2022-09-20T13:43:49.966Z,1.20
2022-09-20T13:46:32.015Z,1.63
2022-09-20T13:49:24.869Z,1.20
2022-09-20T13:51:59.805Z,1.13
2022-09-20T13:54:34.713Z,1.43
2022-09-20T13:57:20.402Z,1.10
2022-09-20T13:59:57.959Z,1.00
2022-09-20T14:02:34.482Z,1.10
2022-09-20T14:05:18.927Z,1.50
2022-09-20T14:07:54.593Z,1.30
2022-09-20T14:10:41.001Z,0.77
2022-09-20T14:13:17.345Z,1.10
2022-09-20T14:15:52.213Z,1.10
2022-09-20T14:18:27.553Z,1.33
2022-09-20T14:21:03.469Z,1.17
2022-09-20T14:24:03.353Z,0.90
2022-09-20T14:26:40.683Z,1.23
2022-09-20T14:29:32.063Z,1.10
2022-09-20T14:32:13.787Z,0.90
2022-09-20T14:35:21.954Z,1.00
2022-09-20T14:38:08.298Z,0.80
2022-09-20T14:40:47.122Z,1.00
2022-09-20T14:43:34.912Z,1.00
2022-09-20T14:46:17.496Z,1.10
2022-09-20T14:48:52.580Z,1.10
2022-09-20T14:51:27.465Z,1.10
2022-09-20T14:54:05.095Z,1.20
2022-09-20T14:56:49.237Z,1.10
2022-09-20T14:59:36.366Z,0.93
2022-09-20T15:02:14.861Z,0.90
2022-09-20T15:05:00.150Z,1.20
2022-09-20T15:07:37.239Z,1.17
2022-09-20T15:10:13.324Z,1.03
2022-09-20T15:12:53.653Z,1.00
2022-09-20T15:15:28.664Z,0.90
2022-09-20T15:18:18.074Z,0.90
2022-09-20T15:20:54.943Z,0.93
2022-09-20T15:23:29.832Z,0.70
2022-09-20T15:26:05.774Z,0.83
2022-09-20T15:28:41.152Z,0.87
2022-09-20T15:31:17.184Z,0.60
2022-09-20T15:33:52.552Z,0.80
2022-09-20T15:36:31.806Z,0.70
2022-09-20T15:39:06.823Z,1.00
2022-09-20T15:41:45.040Z,0.70
2022-09-20T15:44:20.614Z,0.73
2022-09-20T15:46:55.501Z,0.90
2022-09-20T15:49:31.057Z,1.00
2022-09-20T15:52:05.995Z,1.00
2022-09-20T15:54:42.089Z,1.00
2022-09-20T15:57:17.052Z,0.90
2022-09-20T15:59:51.975Z,1.00
2022-09-20T16:02:28.362Z,1.10
2022-09-20T16:05:04.530Z,0.90
2022-09-20T16:07:39.649Z,0.80
2022-09-20T16:10:15.027Z,1.20
2022-09-20T16:12:50.226Z,0.90
2022-09-20T16:15:25.148Z,1.00
2022-09-20T16:18:18.291Z,1.00
2022-09-20T16:20:53.157Z,0.90
2022-09-20T16:23:28.158Z,0.87
2022-09-20T16:26:03.539Z,1.13
2022-09-20T16:28:43.995Z,0.90
2022-09-20T16:31:47.197Z,1.00
2022-09-20T16:34:32.178Z,1.10
2022-09-20T16:37:15.752Z,1.00
2022-09-20T16:39:50.656Z,1.20
2022-09-20T16:42:25.668Z,1.00
2022-09-20T16:45:00.512Z,1.17
2022-09-20T16:47:40.994Z,1.10
2022-09-20T16:50:15.986Z,1.70
2022-09-20T16:52:50.863Z,1.40
2022-09-20T16:55:28.396Z,1.13
2022-09-20T16:58:03.283Z,1.20
2022-09-20T17:00:38.595Z,1.10
2022-09-20T17:03:13.545Z,1.23
2022-09-20T17:05:48.727Z,1.20
2022-09-20T17:08:23.750Z,1.30
2022-09-20T17:11:00.690Z,1.10
2022-09-20T17:13:39.191Z,1.13
2022-09-20T17:16:18.107Z,1.20
2022-09-20T17:18:55.853Z,1.33
2022-09-20T17:21:32.238Z,1.17
2022-09-20T17:24:07.626Z,1.40
2022-09-20T17:26:45.275Z,1.23
2022-09-20T17:29:21.114Z,1.10
2022-09-20T17:31:59.606Z,1.60
2022-09-20T17:34:35.506Z,1.30
2022-09-20T17:37:10.744Z,1.30
2022-09-20T17:39:45.980Z,1.60
2022-09-20T17:42:20.931Z,1.50
2022-09-20T17:44:55.842Z,1.40
2022-09-20T17:47:30.736Z,1.23
2022-09-20T17:50:06.037Z,1.53
2022-09-20T17:52:42.198Z,1.77
2022-09-20T17:55:17.115Z,1.93
2022-09-20T17:57:52.881Z,1.87
2022-09-20T18:00:27.748Z,2.10
2022-09-20T18:03:04.847Z,2.17
2022-09-20T18:05:39.984Z,2.57
2022-09-20T18:08:16.904Z,2.40
2022-09-20T18:10:58.949Z,2.57
2022-09-20T18:13:34.392Z,2.30
2022-09-20T18:16:15.468Z,2.57
2022-09-20T18:18:50.682Z,2.47
2022-09-20T18:21:28.703Z,1.73
2022-09-20T18:24:09.111Z,1.80
2022-09-20T18:26:44.460Z,2.53
2022-09-20T18:29:19.398Z,1.70
2022-09-20T18:31:54.800Z,1.60
2022-09-20T18:34:34.959Z,1.93
2022-09-20T18:37:14.402Z,2.37
2022-09-20T18:39:49.579Z,2.13
2022-09-20T18:42:24.458Z,2.77
2022-09-20T18:44:59.588Z,2.60
2022-09-20T18:47:34.438Z,3.27
2022-09-20T18:50:10.382Z,3.40
2022-09-20T18:52:45.302Z,3.80
2022-09-20T18:55:21.138Z,4.70
2022-09-20T18:58:00.674Z,5.07
2022-09-20T19:00:36.514Z,4.40
2022-09-20T19:03:27.895Z,4.80
2022-09-20T19:06:09.040Z,6.00
2022-09-20T19:09:04.418Z,5.10
2022-09-20T19:11:48.566Z,4.33
2022-09-20T19:15:16.565Z,4.17
2022-09-20T19:18:13.611Z,4.43
2022-09-20T19:21:22.345Z,5.13
2022-09-20T19:24:17.415Z,4.87
2022-09-20T19:26:52.670Z,4.90
2022-09-20T19:29:28.985Z,4.40
2022-09-20T19:32:04.718Z,4.00
2022-09-20T19:34:44.345Z,4.33
2022-09-20T19:37:44.878Z,4.67
2022-09-20T19:40:51.008Z,5.80
2022-09-20T19:43:42.064Z,4.70
2022-09-20T19:46:46.531Z,5.13
2022-09-20T19:49:51.198Z,4.17
2022-09-20T19:52:26.429Z,4.70
2022-09-20T19:55:01.802Z,3.87
2022-09-20T19:57:46.908Z,4.80
2022-09-20T20:00:22.625Z,4.77
2022-09-20T20:02:58.580Z,4.10
2022-09-20T20:05:33.697Z,4.40
2022-09-20T20:08:26.144Z,4.17
2022-09-20T20:11:21.075Z,4.10
2022-09-20T20:14:19.630Z,4.70
2022-09-20T20:16:57.400Z,4.30
2022-09-20T20:19:53.345Z,4.40
2022-09-20T20:22:49.377Z,4.90
2022-09-20T20:25:55.588Z,4.30
2022-09-20T20:28:30.729Z,3.87
2022-09-20T20:31:07.025Z,4.03
2022-09-20T20:33:43.317Z,3.80
2022-09-20T20:36:18.270Z,4.00
2022-09-20T20:38:53.363Z,4.00
2022-09-20T20:41:30.124Z,3.77
2022-09-20T20:44:06.192Z,3.83
2022-09-20T20:46:41.125Z,4.10
2022-09-20T20:49:16.854Z,4.00
2022-09-20T20:51:51.832Z,3.87
2022-09-20T20:54:26.744Z,4.37
2022-09-20T20:57:03.114Z,6.90
2022-09-20T20:59:37.994Z,4.37
2022-09-20T21:02:12.866Z,4.40
2022-09-20T21:04:48.101Z,3.77
2022-09-20T21:07:22.917Z,3.97
2022-09-20T21:09:58.042Z,4.03
2022-09-20T21:12:32.894Z,4.30
2022-09-20T21:15:08.393Z,4.70
2022-09-20T21:17:43.402Z,4.60
2022-09-20T21:20:18.604Z,4.20
2022-09-20T21:22:56.566Z,4.57
2022-09-20T21:25:31.425Z,4.63
2022-09-20T21:28:06.300Z,4.13
2022-09-20T21:30:41.256Z,4.00
2022-09-20T21:33:16.294Z,4.10
2022-09-20T21:35:52.012Z,4.87
2022-09-20T21:38:33.723Z,3.93
2022-09-20T21:41:29.225Z,3.80
2022-09-20T21:44:05.902Z,4.20
2022-09-20T21:46:42.146Z,5.07
2022-09-20T21:49:17.758Z,3.97
2022-09-20T21:51:53.291Z,3.93
2022-09-20T21:54:30.997Z,3.93
2022-09-20T21:57:05.937Z,4.80
2022-09-20T21:59:41.523Z,4.30
2022-09-20T22:02:17.431Z,4.60
2022-09-20T22:04:53.479Z,3.40
2022-09-20T22:07:28.381Z,3.90
2022-09-20T22:10:03.629Z,3.47
2022-09-20T22:12:38.510Z,4.47
2022-09-20T22:15:13.442Z,3.80
2022-09-20T22:17:48.266Z,3.90
2022-09-20T22:20:23.151Z,4.77
2022-09-20T22:22:58.116Z,4.30
2022-09-20T22:25:34.149Z,3.80
2022-09-20T22:28:09.077Z,4.10
2022-09-20T22:30:44.102Z,3.80
2022-09-20T22:33:19.012Z,3.80
2022-09-20T22:35:53.959Z,4.90
2022-09-20T22:38:30.431Z,4.97
2022-09-20T22:41:06.049Z,4.67
2022-09-20T22:43:41.867Z,3.90
2022-09-20T22:46:25.807Z,3.57
2022-09-20T22:49:00.662Z,4.50
2022-09-20T22:51:36.353Z,5.40
2022-09-20T22:54:12.189Z,5.00
2022-09-20T22:56:47.028Z,5.50
2022-09-20T22:59:21.953Z,5.00
2022-09-20T23:01:57.597Z,5.00
2022-09-20T23:04:32.509Z,4.70
2022-09-20T23:07:07.742Z,4.73
2022-09-20T23:09:42.612Z,4.50
2022-09-20T23:12:17.544Z,5.03
2022-09-20T23:14:52.385Z,5.13
2022-09-20T23:17:27.325Z,5.77
2022-09-20T23:20:03.573Z,5.30
2022-09-20T23:22:38.504Z,5.13
2022-09-20T23:25:13.829Z,4.60
2022-09-20T23:27:48.668Z,4.87
2022-09-20T23:30:23.496Z,5.40
2022-09-20T23:32:58.312Z,5.00
2022-09-20T23:35:34.117Z,4.83
2022-09-20T23:38:09.052Z,5.60
2022-09-20T23:40:45.852Z,5.20
2022-09-20T23:43:20.711Z,4.93
2022-09-20T23:45:55.699Z,4.77
2022-09-20T23:48:30.991Z,4.97
2022-09-20T23:51:06.874Z,5.40
2022-09-20T23:53:42.740Z,4.20
2022-09-20T23:56:18.049Z,5.33
2022-09-20T23:58:54.050Z,5.10
